Terminal Aerodrome Forecast
Issued by NWS

Home | Current Version | Previous Version | Text Only | Print | Product List | Glossary On
Versions: 1 2 3 4 5 6 7 8 9 10 11 12 13
675
FTUS43 KSGF 271720
TAFJLN
TAF
KJLN 271720Z 2718/2818 13004KT P6SM BKN090
     FM272000 33004KT P6SM VCTS BKN050CB
     FM280000 22003KT P6SM SCT200=

USA.gov is the U.S. government's official web portal to all federal, state and local government web resources and services.